Ristna, Estonia

7:17 AM EET on February 25, 2017 (GMT +0200)
Haldi | | Change Station

Elev 16 ft 58.81 °N, 22.45 °E | Updated 1 minute ago

Snow
Snow
28.4 °F
Feels Like 25 °F
N
3.1
Wind Variable Wind from North
Gusts 6.2 mph

Today
High -- | Low -- °F
--% Chance of Precip.
Yesterday
High -- | Low -- °F
Precip. -- in
Pressure 29.44 in
Visibility 3.7 miles
Clouds Mostly Cloudy 2700 ft
Windchill 25 °F
Dew Point 21 °F
Humidity 73%
Rainfall Not available.
Snow Depth Not available.
7:39 AM 5:51 PM
Waning Crescent, 2% visible
METAR EEKA 250450Z 32017KT 6000 BLSN BKN027 M03/M07 Q0997
Pressure 29.44 in
Visibility 3.7 miles
Clouds Mostly Cloudy 2700 ft
Windchill 25 °F
Dew Point 21 °F
Humidity 73%
Rainfall Not available.
Snow Depth Not available.
7:39 AM 5:51 PM
Waning Crescent, 2% visible
METAR EEKA 250450Z 32017KT 6000 BLSN BKN027 M03/M07 Q0997

Get Your Daily Forecast Email!

Thanks for signing up!

Be on the lookout for a verification email in your inbox.

You'll start receiving the daily forecast at 8 AM.

×

10-Day Weather Forecast

×

Almanac

Astronomy

Feb. 25, 2017 Rise Set
Actual Time
Civil Twilight
Nautical Twilight
Astronomical Twilight
Moon
Length of Visible Light
Length of Day
Tomorrow will be .
, % of the Moon is Illuminated

Today's Extremes

Country Highs Country Lows

Community

WunderPhotos

Upload Photos

1,962,540 photos uploaded!

WunderBlog® & News

Nearby

Air Quality

  Air Quality AQ Index Pollutant
Not available.

Snow Depth

Station Depth Elevation

Earthquake Activity

City Distance Mag. Time & Date
Minimum magnitude displayed is 2.5.

Coastal Water Temperatures

Place Temperature

Stations

Nearby Weather Stations

Station Location Temp. Windchill Dew Point Humidity Wind Precip. Elev Updated Type